createdAt,value
2023-01-07T00:01:02.973Z,100493.63
2023-01-07T00:03:30.805Z,100492.88
2023-01-07T00:06:02.598Z,100492.63
2023-01-07T00:08:31.471Z,100489.13
2023-01-07T00:11:02.221Z,100485.72
2023-01-07T00:13:30.197Z,100489.22
2023-01-07T00:15:59.476Z,100485.97
2023-01-07T00:18:27.346Z,100493.78
2023-01-07T00:20:57.763Z,100492.97
2023-01-07T00:23:27.391Z,100484.31
2023-01-07T00:26:01.577Z,100483.50
2023-01-07T00:28:29.201Z,100481.00
2023-01-07T00:31:00.618Z,100469.00
2023-01-07T00:33:29.113Z,100467.19
2023-01-07T00:36:01.143Z,100462.94
2023-01-07T00:38:30.077Z,100463.88
2023-01-07T00:40:57.798Z,100472.41
2023-01-07T00:43:25.323Z,100462.13
2023-01-07T00:45:53.003Z,100463.06
2023-01-07T00:48:21.542Z,100453.59
2023-01-07T00:50:49.642Z,100453.63
2023-01-07T00:53:17.303Z,100447.81
2023-01-07T00:55:46.767Z,100443.44
2023-01-07T00:58:21.103Z,100443.31
2023-01-07T01:00:49.421Z,100451.91
2023-01-07T01:03:17.292Z,100443.31
2023-01-07T01:05:44.988Z,100443.31
2023-01-07T01:08:12.574Z,100441.66
2023-01-07T01:10:40.255Z,100440.88
2023-01-07T01:13:13.502Z,100438.19
2023-01-07T01:15:43.286Z,100434.69
2023-01-07T01:18:11.280Z,100438.91
2023-01-07T01:20:39.707Z,100432.03
2023-01-07T01:23:08.175Z,100425.09
2023-01-07T01:25:35.833Z,100426.91
2023-01-07T01:28:03.807Z,100421.59
2023-01-07T01:30:32.730Z,100427.56
2023-01-07T01:33:01.235Z,100429.38
2023-01-07T01:35:28.813Z,100431.16
2023-01-07T01:37:57.091Z,100434.59
2023-01-07T01:40:29.826Z,100434.69
2023-01-07T01:42:57.492Z,100435.66
2023-01-07T01:45:27.004Z,100439.31
2023-01-07T01:47:58.777Z,100429.84
2023-01-07T01:50:30.968Z,100433.16
2023-01-07T01:53:04.631Z,100431.50
2023-01-07T01:55:36.578Z,100425.38
2023-01-07T01:58:09.377Z,100423.69
2023-01-07T02:00:37.844Z,100426.16
2023-01-07T02:03:12.987Z,100423.38
2023-01-07T02:05:42.504Z,100420.72
2023-01-07T02:08:10.786Z,100421.72
2023-01-07T02:10:40.282Z,100422.63
2023-01-07T02:13:26.251Z,100424.41
2023-01-07T02:16:00.234Z,100414.06
2023-01-07T02:18:47.751Z,100414.00
2023-01-07T02:21:29.291Z,100406.34
2023-01-07T02:24:35.247Z,100404.63
2023-01-07T02:27:33.100Z,100400.38
2023-01-07T02:30:31.344Z,100392.75
2023-01-07T02:33:34.255Z,100392.78
2023-01-07T02:36:23.254Z,100387.66
2023-01-07T02:39:06.018Z,100386.78
2023-01-07T02:41:45.587Z,100380.84
2023-01-07T02:44:25.159Z,100384.34
2023-01-07T02:47:02.173Z,100377.59
2023-01-07T02:49:31.156Z,100366.38
2023-01-07T02:52:18.195Z,100364.69
2023-01-07T02:54:49.148Z,100354.41
2023-01-07T02:57:37.960Z,100365.56
2023-01-07T03:00:17.323Z,100362.19
2023-01-07T03:03:03.838Z,100364.03
2023-01-07T03:05:45.961Z,100358.84
2023-01-07T03:08:29.491Z,100351.13
2023-01-07T03:11:00.486Z,100349.44
2023-01-07T03:13:34.956Z,100346.00
2023-01-07T03:16:08.340Z,100346.06
2023-01-07T03:18:41.716Z,100351.22
2023-01-07T03:21:14.848Z,100344.31
2023-01-07T03:23:47.608Z,100344.31
2023-01-07T03:26:21.686Z,100341.88
2023-01-07T03:28:52.884Z,100334.25
2023-01-07T03:31:23.203Z,100334.25
2023-01-07T03:33:56.538Z,100333.34
2023-01-07T03:36:29.432Z,100325.72
2023-01-07T03:38:57.601Z,100334.38
2023-01-07T03:41:43.459Z,100324.09
2023-01-07T03:44:11.329Z,100324.09
2023-01-07T03:46:39.652Z,100318.06
2023-01-07T03:49:07.745Z,100317.09
2023-01-07T03:51:38.303Z,100322.94
2023-01-07T03:54:06.205Z,100313.50
2023-01-07T03:56:33.896Z,100309.22
2023-01-07T03:59:01.573Z,100318.75
2023-01-07T04:01:30.526Z,100308.47
2023-01-07T04:03:58.611Z,100307.47
2023-01-07T04:06:26.273Z,100301.34
2023-01-07T04:08:55.756Z,100299.59
2023-01-07T04:11:23.383Z,100295.13
2023-01-07T04:13:51.561Z,100299.53
2023-01-07T04:16:19.265Z,100290.13
2023-01-07T04:18:47.183Z,100296.22
2023-01-07T04:21:14.735Z,100303.09
2023-01-07T04:23:42.478Z,100291.19
2023-01-07T04:26:12.605Z,100282.66
2023-01-07T04:28:41.785Z,100280.97
2023-01-07T04:31:09.584Z,100277.63
2023-01-07T04:33:38.249Z,100275.84
2023-01-07T04:36:06.070Z,100273.06
2023-01-07T04:38:34.126Z,100271.38
2023-01-07T04:41:01.749Z,100273.91
2023-01-07T04:43:30.677Z,100268.69
2023-01-07T04:45:58.295Z,100270.47
2023-01-07T04:48:26.021Z,100268.88
2023-01-07T04:50:55.212Z,100268.81
2023-01-07T04:53:23.316Z,100265.38
2023-01-07T04:55:51.711Z,100261.97
2023-01-07T04:58:19.733Z,100262.94
2023-01-07T05:00:50.335Z,100261.25
2023-01-07T05:03:19.823Z,100262.19
2023-01-07T05:05:47.602Z,100254.50
2023-01-07T05:08:16.797Z,100251.03
2023-01-07T05:10:44.548Z,100247.72
2023-01-07T05:13:16.303Z,100245.22
2023-01-07T05:15:44.350Z,100250.44
2023-01-07T05:18:14.259Z,100247.88
2023-01-07T05:20:41.958Z,100241.78
2023-01-07T05:23:09.948Z,100241.72
2023-01-07T05:25:38.065Z,100240.81
2023-01-07T05:28:06.180Z,100232.97
2023-01-07T05:30:37.433Z,100238.31
2023-01-07T05:33:07.100Z,100238.22
2023-01-07T05:35:36.892Z,100233.09
2023-01-07T05:38:04.801Z,100224.56
2023-01-07T05:40:33.170Z,100231.34
2023-01-07T05:43:00.743Z,100232.97
2023-01-07T05:45:29.223Z,100231.25
2023-01-07T05:47:56.741Z,100223.50
2023-01-07T05:50:24.269Z,100221.94
2023-01-07T05:52:53.398Z,100214.91
2023-01-07T05:55:20.953Z,100217.47
2023-01-07T05:57:48.497Z,100209.69
2023-01-07T06:00:16.638Z,100207.88
2023-01-07T06:02:44.175Z,100209.34
2023-01-07T06:05:11.947Z,100204.28
2023-01-07T06:07:39.518Z,100201.63
2023-01-07T06:10:09.589Z,100193.13
2023-01-07T06:12:37.124Z,100187.16
2023-01-07T06:15:06.342Z,100180.31
2023-01-07T06:17:34.102Z,100186.28
2023-01-07T06:20:02.164Z,100178.78
2023-01-07T06:22:29.664Z,100178.78
2023-01-07T06:24:57.192Z,100179.72
2023-01-07T06:27:26.096Z,100184.00
2023-01-07T06:29:53.691Z,100184.78
2023-01-07T06:32:21.257Z,100184.88
2023-01-07T06:34:48.774Z,100181.56
2023-01-07T06:37:17.834Z,100176.53
2023-01-07T06:39:45.430Z,100178.19
2023-01-07T06:42:13.019Z,100174.81
2023-01-07T06:44:41.915Z,100176.44
2023-01-07T06:47:09.491Z,100176.34
2023-01-07T06:49:37.024Z,100165.88
2023-01-07T06:52:04.883Z,100169.38
2023-01-07T06:54:32.484Z,100161.66
2023-01-07T06:57:00.040Z,100159.09
2023-01-07T06:59:27.557Z,100165.78
2023-01-07T07:01:56.590Z,100162.50
2023-01-07T07:04:24.221Z,100162.09
2023-01-07T07:06:51.721Z,100153.59
2023-01-07T07:09:19.300Z,100155.31
2023-01-07T07:11:46.842Z,100155.41
2023-01-07T07:14:14.418Z,100156.91
2023-01-07T07:16:41.922Z,100158.28
2023-01-07T07:19:10.873Z,100151.09
2023-01-07T07:21:38.375Z,100154.34
2023-01-07T07:24:06.510Z,100149.94
2023-01-07T07:26:34.071Z,100148.03
2023-01-07T07:29:01.754Z,100143.63
2023-01-07T07:31:29.373Z,100147.91
2023-01-07T07:33:57.134Z,100140.38
2023-01-07T07:36:26.055Z,100137.09
2023-01-07T07:38:53.644Z,100129.38
2023-01-07T07:41:22.165Z,100139.53
2023-01-07T07:43:50.260Z,100137.63
2023-01-07T07:46:17.877Z,100140.09
2023-01-07T07:48:47.658Z,100140.94
2023-01-07T07:51:15.214Z,100135.78
2023-01-07T07:53:44.141Z,100133.22
2023-01-07T07:56:11.741Z,100128.00
2023-01-07T07:58:39.312Z,100125.31
2023-01-07T08:01:07.311Z,100129.56
2023-01-07T08:03:34.986Z,100121.09
2023-01-07T08:06:04.576Z,100115.22
2023-01-07T08:08:32.306Z,100118.72
2023-01-07T08:11:01.204Z,100113.59
2023-01-07T08:13:28.887Z,100107.59
2023-01-07T08:15:56.485Z,100106.78
2023-01-07T08:18:25.236Z,100109.38
2023-01-07T08:20:52.861Z,100102.66
2023-01-07T08:23:20.403Z,100093.97
2023-01-07T08:25:47.946Z,100102.66
2023-01-07T08:28:16.860Z,100095.81
2023-01-07T08:30:44.576Z,100097.59
2023-01-07T08:33:12.178Z,100092.53
2023-01-07T08:35:39.717Z,100099.38
2023-01-07T08:38:09.417Z,100095.22
2023-01-07T08:40:37.949Z,100094.34
2023-01-07T08:43:07.701Z,100098.63
2023-01-07T08:45:36.805Z,100097.84
2023-01-07T08:48:04.977Z,100098.78
2023-01-07T08:50:34.204Z,100098.69
2023-01-07T08:53:01.916Z,100097.94
2023-01-07T08:55:29.480Z,100094.41
2023-01-07T08:57:57.087Z,100091.00
2023-01-07T09:00:25.005Z,100096.25
2023-01-07T09:02:54.009Z,100091.13
2023-01-07T09:05:21.702Z,100080.97
2023-01-07T09:07:52.804Z,100074.97
2023-01-07T09:10:21.230Z,100076.00
2023-01-07T09:12:48.808Z,100069.94
2023-01-07T09:15:16.466Z,100073.41
2023-01-07T09:17:44.159Z,100069.09
2023-01-07T09:20:13.087Z,100064.69
2023-01-07T09:22:40.839Z,100057.88
2023-01-07T09:25:09.331Z,100063.97
2023-01-07T09:27:37.297Z,100058.13
2023-01-07T09:30:07.843Z,100059.25
2023-01-07T09:32:35.643Z,100065.72
2023-01-07T09:35:03.208Z,100060.72
2023-01-07T09:37:32.208Z,100058.84
2023-01-07T09:40:01.047Z,100055.38
2023-01-07T09:42:39.210Z,100058.13
2023-01-07T09:45:15.087Z,100053.81
2023-01-07T09:47:46.537Z,100050.31
2023-01-07T09:50:25.110Z,100055.19
2023-01-07T09:52:57.426Z,100047.69
2023-01-07T09:55:31.092Z,100050.28
2023-01-07T09:57:58.947Z,100043.66
2023-01-07T10:00:26.983Z,100036.81
2023-01-07T10:03:11.829Z,100038.72
2023-01-07T10:05:48.469Z,100035.47
2023-01-07T10:08:29.060Z,100027.94
2023-01-07T10:11:06.763Z,100038.94
2023-01-07T10:13:53.405Z,100035.72
2023-01-07T10:16:26.667Z,100023.91
2023-01-07T10:19:04.457Z,100027.34
2023-01-07T10:21:41.888Z,100022.66
2023-01-07T10:24:19.406Z,100015.44
2023-01-07T10:26:52.308Z,100018.88
2023-01-07T10:29:24.996Z,100011.94
2023-01-07T10:31:57.000Z,100011.31
2023-01-07T10:34:31.353Z,100001.06
2023-01-07T10:37:03.928Z,100002.13
2023-01-07T10:39:43.534Z,99999.72
2023-01-07T10:42:16.622Z,99993.78
2023-01-07T10:45:00.926Z,99985.88
2023-01-07T10:47:44.482Z,99976.75
2023-01-07T10:50:30.998Z,99968.41
2023-01-07T10:53:06.122Z,99961.66
2023-01-07T10:55:49.909Z,99952.31
2023-01-07T10:58:17.497Z,99945.59
2023-01-07T11:00:48.569Z,99938.81
2023-01-07T11:03:21.411Z,99934.78
2023-01-07T11:05:55.134Z,99929.72
2023-01-07T11:08:30.144Z,99923.03
2023-01-07T11:10:59.738Z,99917.06
2023-01-07T11:13:30.788Z,99910.44
2023-01-07T11:16:01.546Z,99903.72
2023-01-07T11:18:34.024Z,99896.91
2023-01-07T11:21:01.819Z,99897.69
2023-01-07T11:23:32.631Z,99895.03
2023-01-07T11:26:13.851Z,99887.13
2023-01-07T11:28:53.427Z,99872.75
2023-01-07T11:31:22.320Z,99877.81
2023-01-07T11:34:01.558Z,99878.69
2023-01-07T11:36:41.687Z,99872.88
2023-01-07T11:39:19.281Z,99869.41
2023-01-07T11:41:57.191Z,99852.56
2023-01-07T11:44:25.416Z,99855.38
2023-01-07T11:46:53.689Z,99847.13
2023-01-07T11:49:25.400Z,99846.63
2023-01-07T11:51:53.386Z,99833.09
2023-01-07T11:54:23.099Z,99830.06
2023-01-07T11:56:51.108Z,99828.44
2023-01-07T11:59:31.361Z,99824.25
2023-01-07T12:02:00.538Z,99818.31
2023-01-07T12:04:30.503Z,99814.88
2023-01-07T12:07:00.844Z,99804.50
2023-01-07T12:09:35.928Z,99802.72
2023-01-07T12:12:34.488Z,99794.09
2023-01-07T12:15:07.145Z,99795.78
2023-01-07T12:17:36.356Z,99790.53
2023-01-07T12:20:50.757Z,99779.19
2023-01-07T12:23:24.612Z,99765.94
2023-01-07T12:26:00.526Z,99767.44
2023-01-07T12:28:39.094Z,99763.16
2023-01-07T12:31:20.844Z,99759.00
2023-01-07T12:34:07.598Z,99753.78
2023-01-07T12:36:41.166Z,99754.22
2023-01-07T12:39:15.391Z,99735.28
2023-01-07T12:41:49.736Z,99744.25
2023-01-07T12:44:20.446Z,99742.59
2023-01-07T12:47:32.687Z,99731.22
2023-01-07T12:49:52.039Z,99721.56
2023-01-07T12:52:25.643Z,99725.25
2023-01-07T12:55:00.274Z,99727.19
2023-01-07T12:57:31.393Z,99712.75
2023-01-07T13:00:05.921Z,99707.19
2023-01-07T13:02:42.616Z,99707.13
2023-01-07T13:05:15.072Z,99700.19
2023-01-07T13:07:50.658Z,99696.59
2023-01-07T13:10:23.925Z,99693.97
2023-01-07T13:12:55.338Z,99693.88
2023-01-07T13:15:26.835Z,99695.50
2023-01-07T13:17:57.880Z,99689.28
2023-01-07T13:21:02.513Z,99682.28
2023-01-07T13:23:49.410Z,99685.59
2023-01-07T13:26:30.826Z,99684.78
2023-01-07T13:29:13.097Z,99675.69
2023-01-07T13:31:57.295Z,99676.63
2023-01-07T13:34:38.064Z,99681.16
2023-01-07T13:37:22.097Z,99681.03
2023-01-07T13:40:09.017Z,99674.28
2023-01-07T13:42:45.924Z,99676.28
2023-01-07T13:45:17.625Z,99661.78
2023-01-07T13:47:49.233Z,99657.81
2023-01-07T13:50:35.408Z,99668.44
2023-01-07T13:53:05.188Z,99660.69
2023-01-07T13:55:39.637Z,99658.13
2023-01-07T13:58:35.738Z,99669.75
2023-01-07T14:01:05.341Z,99669.16
2023-01-07T14:03:36.283Z,99656.50
2023-01-07T14:06:43.007Z,99667.34
2023-01-07T14:09:40.246Z,99659.41
2023-01-07T14:12:52.523Z,99660.28
2023-01-07T14:16:01.717Z,99660.59
2023-01-07T14:19:08.825Z,99659.41
2023-01-07T14:21:56.730Z,99668.44
2023-01-07T14:24:38.802Z,99667.84
2023-01-07T14:27:21.159Z,99670.78
2023-01-07T14:29:52.539Z,99659.16
2023-01-07T14:32:33.093Z,99660.84
2023-01-07T14:35:05.830Z,99659.22
2023-01-07T14:37:38.465Z,99657.19
2023-01-07T14:40:59.782Z,99656.88
2023-01-07T14:43:48.746Z,99653.56
2023-01-07T14:46:51.026Z,99653.88
2023-01-07T14:49:44.297Z,99653.44
2023-01-07T14:52:26.445Z,99653.03
2023-01-07T14:55:23.061Z,99648.19
2023-01-07T14:58:04.970Z,99650.19
2023-01-07T15:00:48.647Z,99652.06
2023-01-07T15:03:38.026Z,99642.69
2023-01-07T15:06:24.111Z,99647.91
2023-01-07T15:09:13.713Z,99636.66
2023-01-07T15:12:02.916Z,99637.50
2023-01-07T15:14:53.844Z,99626.25
2023-01-07T15:17:21.723Z,99617.53
2023-01-07T15:19:49.323Z,99616.69
2023-01-07T15:22:34.444Z,99617.50
2023-01-07T15:25:11.480Z,99627.75
2023-01-07T15:27:50.253Z,99622.41
2023-01-07T15:30:30.156Z,99618.03
2023-01-07T15:33:06.553Z,99622.22
2023-01-07T15:35:39.101Z,99629.00
2023-01-07T15:38:20.573Z,99627.78
2023-01-07T15:40:48.184Z,99630.19
2023-01-07T15:43:23.544Z,99629.03
2023-01-07T15:45:59.276Z,99631.38
2023-01-07T15:48:26.897Z,99631.22
2023-01-07T15:50:54.409Z,99632.78
2023-01-07T15:53:24.590Z,99628.28
2023-01-07T15:55:57.082Z,99621.97
2023-01-07T15:58:34.579Z,99621.72
2023-01-07T16:01:03.623Z,99617.09
2023-01-07T16:03:32.326Z,99626.13
2023-01-07T16:06:01.492Z,99617.19
2023-01-07T16:08:31.637Z,99610.13
2023-01-07T16:11:02.299Z,99609.09
2023-01-07T16:13:32.292Z,99618.25
2023-01-07T16:16:03.151Z,99616.16
2023-01-07T16:18:32.257Z,99614.38
2023-01-07T16:21:03.208Z,99610.69
2023-01-07T16:23:32.649Z,99612.38
2023-01-07T16:26:05.615Z,99606.88
2023-01-07T16:28:39.520Z,99603.94
2023-01-07T16:31:11.489Z,99599.44
2023-01-07T16:33:40.090Z,99600.00
2023-01-07T16:36:14.774Z,99597.16
2023-01-07T16:38:44.633Z,99596.84
2023-01-07T16:41:21.870Z,99600.13
2023-01-07T16:43:52.394Z,99599.09
2023-01-07T16:46:24.419Z,99598.16
2023-01-07T16:49:28.987Z,99596.19
2023-01-07T16:52:06.246Z,99596.06
2023-01-07T16:54:37.208Z,99596.69
2023-01-07T16:57:06.819Z,99588.81
2023-01-07T16:59:38.848Z,99597.16
2023-01-07T17:02:14.051Z,99585.84
2023-01-07T17:04:41.892Z,99585.69
2023-01-07T17:07:19.939Z,99582.03
2023-01-07T17:09:47.671Z,99580.16
2023-01-07T17:12:28.198Z,99577.31
2023-01-07T17:14:57.244Z,99582.31
2023-01-07T17:17:29.668Z,99570.22
2023-01-07T17:20:17.306Z,99568.31
2023-01-07T17:22:45.213Z,99566.31
2023-01-07T17:25:14.755Z,99566.06
2023-01-07T17:27:46.813Z,99558.91
2023-01-07T17:30:18.880Z,99557.03
2023-01-07T17:32:47.864Z,99558.66
2023-01-07T17:35:20.816Z,99551.63
2023-01-07T17:37:48.934Z,99554.00
2023-01-07T17:40:17.375Z,99548.72
2023-01-07T17:43:04.300Z,99548.75
2023-01-07T17:45:33.688Z,99550.34
2023-01-07T17:48:01.554Z,99561.31
2023-01-07T17:50:36.632Z,99552.63
2023-01-07T17:53:05.157Z,99561.06
2023-01-07T17:55:36.203Z,99558.25
2023-01-07T17:58:03.941Z,99554.59
2023-01-07T18:00:40.796Z,99550.25
2023-01-07T18:03:08.460Z,99544.16
2023-01-07T18:05:35.993Z,99548.41
2023-01-07T18:08:05.781Z,99544.03
2023-01-07T18:10:54.022Z,99548.22
2023-01-07T18:13:20.647Z,99552.38
2023-01-07T18:15:49.509Z,99554.81
2023-01-07T18:18:17.084Z,99548.75
2023-01-07T18:20:44.673Z,99547.66
2023-01-07T18:23:12.907Z,99555.88
2023-01-07T18:25:44.341Z,99557.28
2023-01-07T18:28:12.442Z,99555.44
2023-01-07T18:30:40.106Z,99552.59
2023-01-07T18:33:10.930Z,99561.94
2023-01-07T18:35:40.434Z,99561.91
2023-01-07T18:38:13.099Z,99560.06
2023-01-07T18:40:40.714Z,99562.53
2023-01-07T18:43:08.407Z,99561.50
2023-01-07T18:45:36.007Z,99556.22
2023-01-07T18:48:03.579Z,99562.91
2023-01-07T18:50:33.288Z,99566.97
2023-01-07T18:53:00.893Z,99567.75
2023-01-07T18:55:29.356Z,99564.78
2023-01-07T18:57:56.941Z,99560.44
2023-01-07T19:00:24.538Z,99560.66
2023-01-07T19:02:52.962Z,99557.28
2023-01-07T19:05:20.490Z,99553.59
2023-01-07T19:07:49.431Z,99550.00
2023-01-07T19:10:17.085Z,99549.81
2023-01-07T19:12:44.629Z,99544.44
2023-01-07T19:15:12.597Z,99545.97
2023-01-07T19:17:40.129Z,99544.03
2023-01-07T19:20:09.554Z,99548.13
2023-01-07T19:22:37.198Z,99550.56
2023-01-07T19:25:07.256Z,99553.03
2023-01-07T19:27:35.159Z,99546.94
2023-01-07T19:30:02.970Z,99551.00
2023-01-07T19:32:30.782Z,99552.56
2023-01-07T19:34:58.297Z,99543.09
2023-01-07T19:37:25.881Z,99541.34
2023-01-07T19:39:53.812Z,99537.97
2023-01-07T19:42:22.985Z,99534.47
2023-01-07T19:44:50.493Z,99538.56
2023-01-07T19:47:18.126Z,99526.63
2023-01-07T19:49:46.186Z,99530.78
2023-01-07T19:52:14.404Z,99532.44
2023-01-07T19:54:42.186Z,99515.47
2023-01-07T19:57:22.761Z,99522.13
2023-01-07T19:59:52.120Z,99512.81
2023-01-07T20:02:19.909Z,99505.16
2023-01-07T20:04:47.556Z,99510.13
2023-01-07T20:07:15.159Z,99498.19
2023-01-07T20:09:42.708Z,99493.00
2023-01-07T20:12:10.332Z,99499.69
2023-01-07T20:14:37.912Z,99496.25
2023-01-07T20:17:06.795Z,99495.41
2023-01-07T20:19:34.400Z,99492.75
2023-01-07T20:22:01.947Z,99495.25
2023-01-07T20:24:29.618Z,99484.84
2023-01-07T20:26:57.200Z,99491.59
2023-01-07T20:29:24.816Z,99489.03
2023-01-07T20:31:52.518Z,99491.59
2023-01-07T20:34:21.495Z,99491.56
2023-01-07T20:36:49.051Z,99482.94
2023-01-07T20:39:16.625Z,99488.00
2023-01-07T20:41:44.208Z,99500.88
2023-01-07T20:44:12.265Z,99492.28
2023-01-07T20:46:40.676Z,99494.03
2023-01-07T20:49:08.858Z,99498.41
2023-01-07T20:51:38.427Z,99500.88
2023-01-07T20:54:06.139Z,99487.31
2023-01-07T20:56:33.992Z,99492.41
2023-01-07T20:59:02.007Z,99493.22
2023-01-07T21:01:30.519Z,99487.19
2023-01-07T21:03:58.504Z,99491.38
2023-01-07T21:06:26.164Z,99485.28
2023-01-07T21:08:55.179Z,99487.53
2023-01-07T21:11:25.091Z,99482.13
2023-01-07T21:13:55.872Z,99483.69
2023-01-07T21:16:24.366Z,99487.13
2023-01-07T21:18:52.041Z,99480.22
2023-01-07T21:21:23.763Z,99481.91
2023-01-07T21:23:52.158Z,99478.50
2023-01-07T21:26:21.742Z,99492.13
2023-01-07T21:28:49.428Z,99499.81
2023-01-07T21:31:17.851Z,99496.34
2023-01-07T21:33:45.766Z,99497.03
2023-01-07T21:36:15.452Z,99496.16
2023-01-07T21:38:43.193Z,99494.53
2023-01-07T21:41:12.790Z,99490.19
2023-01-07T21:43:42.264Z,99492.75
2023-01-07T21:46:10.241Z,99493.63
2023-01-07T21:48:40.299Z,99496.13
2023-01-07T21:51:11.731Z,99499.53
2023-01-07T21:53:39.662Z,99491.81
2023-01-07T21:56:09.782Z,99493.47
2023-01-07T21:58:38.277Z,99494.25
2023-01-07T22:01:09.161Z,99493.47
2023-01-07T22:03:37.979Z,99487.53
2023-01-07T22:06:07.860Z,99474.06
2023-01-07T22:08:36.351Z,99472.34
2023-01-07T22:11:04.063Z,99479.31
2023-01-07T22:13:31.649Z,99489.63
2023-01-07T22:15:59.468Z,99488.13
2023-01-07T22:18:28.476Z,99481.41
2023-01-07T22:20:56.494Z,99491.63
2023-01-07T22:23:24.405Z,99479.63
2023-01-07T22:25:51.978Z,99484.75
2023-01-07T22:28:22.779Z,99473.03
2023-01-07T22:30:53.822Z,99474.91
2023-01-07T22:33:22.538Z,99479.31
2023-01-07T22:35:52.293Z,99470.78
2023-01-07T22:38:29.154Z,99467.47
2023-01-07T22:40:57.399Z,99481.84
2023-01-07T22:43:26.129Z,99473.50
2023-01-07T22:45:58.426Z,99477.78
2023-01-07T22:48:29.236Z,99469.44
2023-01-07T22:51:03.896Z,99472.16
2023-01-07T22:53:31.552Z,99473.03
2023-01-07T22:56:00.270Z,99473.09
2023-01-07T22:58:27.842Z,99465.47
2023-01-07T23:01:14.031Z,99455.38
2023-01-07T23:03:42.422Z,99447.03
2023-01-07T23:06:14.363Z,99457.28
2023-01-07T23:08:42.874Z,99451.25
2023-01-07T23:11:10.619Z,99453.09
2023-01-07T23:13:38.974Z,99444.53
2023-01-07T23:16:07.429Z,99443.88
2023-01-07T23:18:35.517Z,99438.78
2023-01-07T23:21:05.451Z,99441.31
2023-01-07T23:23:34.374Z,99422.75
2023-01-07T23:26:01.892Z,99425.41
2023-01-07T23:28:29.496Z,99426.81
2023-01-07T23:31:01.584Z,99424.97
2023-01-07T23:33:29.257Z,99414.97
2023-01-07T23:36:02.343Z,99413.22
2023-01-07T23:38:29.928Z,99407.91
2023-01-07T23:41:02.161Z,99407.22
2023-01-07T23:43:29.775Z,99404.53
2023-01-07T23:45:57.876Z,99397.00
2023-01-07T23:48:26.583Z,99404.72
2023-01-07T23:50:54.564Z,99382.56
2023-01-07T23:53:22.230Z,99377.50
2023-01-07T23:55:53.810Z,99383.84
2023-01-07T23:58:23.854Z,99385.56
